sensor_id;sensor_type;location;lat;lon;timestamp;temperature;humidity
3942;DHT22;1985;48.592;8.850;2023-07-20T00:02:23;20.30;70.70
3942;DHT22;1985;48.592;8.850;2023-07-20T00:04:49;20.20;70.90
3942;DHT22;1985;48.592;8.850;2023-07-20T00:07:14;20.10;71.60
3942;DHT22;1985;48.592;8.850;2023-07-20T00:09:40;19.90;71.90
3942;DHT22;1985;48.592;8.850;2023-07-20T00:12:06;19.90;73.30
3942;DHT22;1985;48.592;8.850;2023-07-20T00:14:32;19.80;72.90
3942;DHT22;1985;48.592;8.850;2023-07-20T00:16:57;19.70;73.10
3942;DHT22;1985;48.592;8.850;2023-07-20T00:19:24;19.70;73.60
3942;DHT22;1985;48.592;8.850;2023-07-20T00:21:50;19.70;73.80
3942;DHT22;1985;48.592;8.850;2023-07-20T00:24:19;19.60;73.70
3942;DHT22;1985;48.592;8.850;2023-07-20T00:26:45;19.50;73.60
3942;DHT22;1985;48.592;8.850;2023-07-20T00:29:11;19.50;73.70
3942;DHT22;1985;48.592;8.850;2023-07-20T00:31:36;19.40;74.20
3942;DHT22;1985;48.592;8.850;2023-07-20T00:34:05;19.30;73.90
3942;DHT22;1985;48.592;8.850;2023-07-20T00:36:31;19.30;73.80
3942;DHT22;1985;48.592;8.850;2023-07-20T00:38:57;19.20;73.90
3942;DHT22;1985;48.592;8.850;2023-07-20T00:41:23;19.20;73.90
3942;DHT22;1985;48.592;8.850;2023-07-20T00:43:48;19.10;73.80
3942;DHT22;1985;48.592;8.850;2023-07-20T00:46:14;19.10;74.10
3942;DHT22;1985;48.592;8.850;2023-07-20T00:48:40;19.00;74.40
3942;DHT22;1985;48.592;8.850;2023-07-20T00:51:07;18.90;74.60
3942;DHT22;1985;48.592;8.850;2023-07-20T00:53:32;18.90;74.70
3942;DHT22;1985;48.592;8.850;2023-07-20T00:55:58;18.90;74.60
3942;DHT22;1985;48.592;8.850;2023-07-20T00:58:24;18.90;74.60
3942;DHT22;1985;48.592;8.850;2023-07-20T01:00:50;18.90;74.70
3942;DHT22;1985;48.592;8.850;2023-07-20T01:03:16;18.90;75.00
3942;DHT22;1985;48.592;8.850;2023-07-20T01:06:11;19.00;74.60
3942;DHT22;1985;48.592;8.850;2023-07-20T01:08:43;18.90;74.70
3942;DHT22;1985;48.592;8.850;2023-07-20T01:11:30;19.00;75.10
3942;DHT22;1985;48.592;8.850;2023-07-20T01:13:58;18.90;74.80
3942;DHT22;1985;48.592;8.850;2023-07-20T01:16:23;19.00;74.90
3942;DHT22;1985;48.592;8.850;2023-07-20T01:18:50;19.20;74.80
3942;DHT22;1985;48.592;8.850;2023-07-20T01:21:22;19.20;73.90
3942;DHT22;1985;48.592;8.850;2023-07-20T01:24:32;19.30;74.00
3942;DHT22;1985;48.592;8.850;2023-07-20T01:27:05;19.40;73.50
3942;DHT22;1985;48.592;8.850;2023-07-20T01:32:22;19.60;77.10
3942;DHT22;1985;48.592;8.850;2023-07-20T01:34:50;19.70;76.80
3942;DHT22;1985;48.592;8.850;2023-07-20T01:37:18;19.80;73.00
3942;DHT22;1985;48.592;8.850;2023-07-20T01:39:45;19.80;75.30
3942;DHT22;1985;48.592;8.850;2023-07-20T01:42:11;19.90;77.40
3942;DHT22;1985;48.592;8.850;2023-07-20T01:44:38;19.90;77.10
3942;DHT22;1985;48.592;8.850;2023-07-20T01:47:04;19.90;72.60
3942;DHT22;1985;48.592;8.850;2023-07-20T01:49:29;19.70;73.00
3942;DHT22;1985;48.592;8.850;2023-07-20T01:51:55;19.40;73.30
3942;DHT22;1985;48.592;8.850;2023-07-20T01:54:20;19.10;74.50
3942;DHT22;1985;48.592;8.850;2023-07-20T01:56:46;18.80;76.20
3942;DHT22;1985;48.592;8.850;2023-07-20T01:59:12;18.60;76.30
3942;DHT22;1985;48.592;8.850;2023-07-20T02:01:37;18.50;77.00
3942;DHT22;1985;48.592;8.850;2023-07-20T02:04:03;18.30;77.30
3942;DHT22;1985;48.592;8.850;2023-07-20T02:06:29;18.20;77.80
3942;DHT22;1985;48.592;8.850;2023-07-20T02:08:54;18.10;78.30
3942;DHT22;1985;48.592;8.850;2023-07-20T02:11:20;18.00;78.90
3942;DHT22;1985;48.592;8.850;2023-07-20T02:13:45;18.00;79.20
3942;DHT22;1985;48.592;8.850;2023-07-20T02:16:11;18.20;78.90
3942;DHT22;1985;48.592;8.850;2023-07-20T02:18:36;18.10;78.90
3942;DHT22;1985;48.592;8.850;2023-07-20T02:21:02;18.10;79.40
3942;DHT22;1985;48.592;8.850;2023-07-20T02:23:28;18.00;79.90
3942;DHT22;1985;48.592;8.850;2023-07-20T02:25:53;17.90;80.30
3942;DHT22;1985;48.592;8.850;2023-07-20T02:28:19;18.00;80.40
3942;DHT22;1985;48.592;8.850;2023-07-20T02:30:45;18.00;80.60
3942;DHT22;1985;48.592;8.850;2023-07-20T02:33:11;17.90;81.50
3942;DHT22;1985;48.592;8.850;2023-07-20T02:35:36;17.70;81.80
3942;DHT22;1985;48.592;8.850;2023-07-20T02:38:02;17.70;82.10
3942;DHT22;1985;48.592;8.850;2023-07-20T02:40:28;17.80;82.20
3942;DHT22;1985;48.592;8.850;2023-07-20T02:42:54;17.80;82.40
3942;DHT22;1985;48.592;8.850;2023-07-20T02:45:19;17.80;82.60
3942;DHT22;1985;48.592;8.850;2023-07-20T02:47:45;17.80;82.60
3942;DHT22;1985;48.592;8.850;2023-07-20T02:50:11;17.80;82.60
3942;DHT22;1985;48.592;8.850;2023-07-20T02:52:39;17.70;83.10
3942;DHT22;1985;48.592;8.850;2023-07-20T02:55:04;17.60;83.40
3942;DHT22;1985;48.592;8.850;2023-07-20T02:57:30;17.70;83.60
3942;DHT22;1985;48.592;8.850;2023-07-20T02:59:55;17.80;83.30
3942;DHT22;1985;48.592;8.850;2023-07-20T03:02:21;18.00;83.00
3942;DHT22;1985;48.592;8.850;2023-07-20T03:04:47;18.10;82.30
3942;DHT22;1985;48.592;8.850;2023-07-20T03:07:12;18.10;82.40
3942;DHT22;1985;48.592;8.850;2023-07-20T03:09:38;18.00;82.50
3942;DHT22;1985;48.592;8.850;2023-07-20T03:12:05;18.00;82.70
3942;DHT22;1985;48.592;8.850;2023-07-20T03:14:31;18.10;82.40
3942;DHT22;1985;48.592;8.850;2023-07-20T03:16:56;18.10;83.10
3942;DHT22;1985;48.592;8.850;2023-07-20T03:19:22;18.00;82.60
3942;DHT22;1985;48.592;8.850;2023-07-20T03:21:47;18.10;82.90
3942;DHT22;1985;48.592;8.850;2023-07-20T03:24:13;18.10;82.50
3942;DHT22;1985;48.592;8.850;2023-07-20T03:26:39;18.20;82.30
3942;DHT22;1985;48.592;8.850;2023-07-20T03:29:05;18.30;83.50
3942;DHT22;1985;48.592;8.850;2023-07-20T03:31:32;18.30;86.60
3942;DHT22;1985;48.592;8.850;2023-07-20T03:33:57;18.40;87.10
3942;DHT22;1985;48.592;8.850;2023-07-20T03:36:23;18.50;87.30
3942;DHT22;1985;48.592;8.850;2023-07-20T03:38:48;18.60;86.50
3942;DHT22;1985;48.592;8.850;2023-07-20T03:41:17;18.70;86.30
3942;DHT22;1985;48.592;8.850;2023-07-20T03:43:43;18.60;87.50
3942;DHT22;1985;48.592;8.850;2023-07-20T03:46:08;18.60;86.60
3942;DHT22;1985;48.592;8.850;2023-07-20T03:48:34;18.70;83.20
3942;DHT22;1985;48.592;8.850;2023-07-20T03:51:00;18.60;82.50
3942;DHT22;1985;48.592;8.850;2023-07-20T03:53:26;18.60;82.80
3942;DHT22;1985;48.592;8.850;2023-07-20T03:55:53;18.60;82.50
3942;DHT22;1985;48.592;8.850;2023-07-20T03:58:19;18.70;84.20
3942;DHT22;1985;48.592;8.850;2023-07-20T04:00:46;18.60;83.10
3942;DHT22;1985;48.592;8.850;2023-07-20T04:03:12;18.50;83.10
3942;DHT22;1985;48.592;8.850;2023-07-20T04:05:38;18.40;83.40
3942;DHT22;1985;48.592;8.850;2023-07-20T04:08:04;18.40;83.70
3942;DHT22;1985;48.592;8.850;2023-07-20T04:10:29;18.50;83.60
3942;DHT22;1985;48.592;8.850;2023-07-20T04:12:55;18.50;83.70
3942;DHT22;1985;48.592;8.850;2023-07-20T04:15:21;18.60;85.90
3942;DHT22;1985;48.592;8.850;2023-07-20T04:17:47;18.70;84.90
3942;DHT22;1985;48.592;8.850;2023-07-20T04:20:12;18.80;86.00
3942;DHT22;1985;48.592;8.850;2023-07-20T04:22:38;18.70;87.70
3942;DHT22;1985;48.592;8.850;2023-07-20T04:25:04;18.70;87.60
3942;DHT22;1985;48.592;8.850;2023-07-20T04:27:30;18.80;87.70
3942;DHT22;1985;48.592;8.850;2023-07-20T04:29:57;18.90;87.50
3942;DHT22;1985;48.592;8.850;2023-07-20T04:32:23;18.90;88.50
3942;DHT22;1985;48.592;8.850;2023-07-20T04:34:48;18.80;88.70
3942;DHT22;1985;48.592;8.850;2023-07-20T04:37:14;18.90;88.10
3942;DHT22;1985;48.592;8.850;2023-07-20T04:39:40;19.00;88.40
3942;DHT22;1985;48.592;8.850;2023-07-20T04:42:06;18.90;89.20
3942;DHT22;1985;48.592;8.850;2023-07-20T04:44:31;19.00;89.10
3942;DHT22;1985;48.592;8.850;2023-07-20T04:46:57;19.10;89.80
3942;DHT22;1985;48.592;8.850;2023-07-20T04:49:23;19.10;90.00
3942;DHT22;1985;48.592;8.850;2023-07-20T04:51:48;19.10;88.50
3942;DHT22;1985;48.592;8.850;2023-07-20T04:54:14;19.20;86.30
3942;DHT22;1985;48.592;8.850;2023-07-20T04:56:40;19.30;85.50
3942;DHT22;1985;48.592;8.850;2023-07-20T04:59:06;19.30;85.10
3942;DHT22;1985;48.592;8.850;2023-07-20T05:01:31;19.20;84.70
3942;DHT22;1985;48.592;8.850;2023-07-20T05:03:57;19.10;85.40
3942;DHT22;1985;48.592;8.850;2023-07-20T05:06:22;19.00;86.20
3942;DHT22;1985;48.592;8.850;2023-07-20T05:08:48;19.10;86.50
3942;DHT22;1985;48.592;8.850;2023-07-20T05:11:13;19.00;86.60
3942;DHT22;1985;48.592;8.850;2023-07-20T05:13:40;19.00;86.60
3942;DHT22;1985;48.592;8.850;2023-07-20T05:16:06;19.00;86.80
3942;DHT22;1985;48.592;8.850;2023-07-20T05:18:31;18.90;86.90
3942;DHT22;1985;48.592;8.850;2023-07-20T05:20:57;19.00;87.10
3942;DHT22;1985;48.592;8.850;2023-07-20T05:23:22;19.10;87.00
3942;DHT22;1985;48.592;8.850;2023-07-20T05:25:58;19.20;86.60
3942;DHT22;1985;48.592;8.850;2023-07-20T05:28:24;19.30;86.00
3942;DHT22;1985;48.592;8.850;2023-07-20T05:30:51;19.30;86.20
3942;DHT22;1985;48.592;8.850;2023-07-20T05:33:22;19.30;86.40
3942;DHT22;1985;48.592;8.850;2023-07-20T05:35:48;19.40;86.80
3942;DHT22;1985;48.592;8.850;2023-07-20T05:38:14;19.50;86.60
3942;DHT22;1985;48.592;8.850;2023-07-20T05:40:44;19.60;86.20
3942;DHT22;1985;48.592;8.850;2023-07-20T05:43:10;19.60;86.20
3942;DHT22;1985;48.592;8.850;2023-07-20T05:45:36;19.70;88.00
3942;DHT22;1985;48.592;8.850;2023-07-20T05:48:02;19.80;90.00
3942;DHT22;1985;48.592;8.850;2023-07-20T05:50:27;19.80;90.20
3942;DHT22;1985;48.592;8.850;2023-07-20T05:52:53;19.90;90.50
3942;DHT22;1985;48.592;8.850;2023-07-20T05:55:19;20.00;90.80
3942;DHT22;1985;48.592;8.850;2023-07-20T05:57:45;20.00;91.00
3942;DHT22;1985;48.592;8.850;2023-07-20T06:00:11;20.10;89.60
3942;DHT22;1985;48.592;8.850;2023-07-20T06:02:38;20.00;90.10
3942;DHT22;1985;48.592;8.850;2023-07-20T06:05:05;20.10;86.90
3942;DHT22;1985;48.592;8.850;2023-07-20T06:07:31;20.10;90.20
3942;DHT22;1985;48.592;8.850;2023-07-20T06:09:57;20.00;90.80
3942;DHT22;1985;48.592;8.850;2023-07-20T06:12:23;19.80;91.10
3942;DHT22;1985;48.592;8.850;2023-07-20T06:14:49;19.80;91.80
3942;DHT22;1985;48.592;8.850;2023-07-20T06:17:15;19.80;91.70
3942;DHT22;1985;48.592;8.850;2023-07-20T06:19:40;19.80;91.00
3942;DHT22;1985;48.592;8.850;2023-07-20T06:22:06;19.60;90.80
3942;DHT22;1985;48.592;8.850;2023-07-20T06:24:31;19.70;91.00
3942;DHT22;1985;48.592;8.850;2023-07-20T06:26:57;19.80;90.40
3942;DHT22;1985;48.592;8.850;2023-07-20T06:29:23;19.80;89.00
3942;DHT22;1985;48.592;8.850;2023-07-20T06:31:48;19.90;89.90
3942;DHT22;1985;48.592;8.850;2023-07-20T06:34:14;20.10;87.90
3942;DHT22;1985;48.592;8.850;2023-07-20T06:36:39;20.20;87.10
3942;DHT22;1985;48.592;8.850;2023-07-20T06:39:05;20.20;85.70
3942;DHT22;1985;48.592;8.850;2023-07-20T06:41:31;20.10;85.90
3942;DHT22;1985;48.592;8.850;2023-07-20T06:43:56;20.20;86.20
3942;DHT22;1985;48.592;8.850;2023-07-20T06:46:27;20.10;86.50
3942;DHT22;1985;48.592;8.850;2023-07-20T06:48:53;20.20;85.50
3942;DHT22;1985;48.592;8.850;2023-07-20T06:51:19;20.30;85.80
3942;DHT22;1985;48.592;8.850;2023-07-20T06:53:45;20.40;85.60
3942;DHT22;1985;48.592;8.850;2023-07-20T06:56:11;20.40;84.80
3942;DHT22;1985;48.592;8.850;2023-07-20T06:58:37;20.30;84.90
3942;DHT22;1985;48.592;8.850;2023-07-20T07:01:07;20.20;85.70
3942;DHT22;1985;48.592;8.850;2023-07-20T07:03:33;20.20;85.10
3942;DHT22;1985;48.592;8.850;2023-07-20T07:05:59;20.30;84.70
3942;DHT22;1985;48.592;8.850;2023-07-20T07:08:25;20.20;85.20
3942;DHT22;1985;48.592;8.850;2023-07-20T07:10:51;20.20;86.00
3942;DHT22;1985;48.592;8.850;2023-07-20T07:13:17;20.20;85.10
3942;DHT22;1985;48.592;8.850;2023-07-20T07:15:43;20.40;86.00
3942;DHT22;1985;48.592;8.850;2023-07-20T07:18:08;20.50;85.00
3942;DHT22;1985;48.592;8.850;2023-07-20T07:20:34;20.60;84.80
3942;DHT22;1985;48.592;8.850;2023-07-20T07:23:00;20.60;84.60
3942;DHT22;1985;48.592;8.850;2023-07-20T07:25:26;20.60;84.90
3942;DHT22;1985;48.592;8.850;2023-07-20T07:27:53;20.70;85.20
3942;DHT22;1985;48.592;8.850;2023-07-20T07:30:19;20.70;84.10
3942;DHT22;1985;48.592;8.850;2023-07-20T07:32:45;20.70;83.80
3942;DHT22;1985;48.592;8.850;2023-07-20T07:35:10;20.70;83.10
3942;DHT22;1985;48.592;8.850;2023-07-20T07:37:37;20.80;83.20
3942;DHT22;1985;48.592;8.850;2023-07-20T07:40:03;20.90;83.00
3942;DHT22;1985;48.592;8.850;2023-07-20T07:42:29;21.00;82.00
3942;DHT22;1985;48.592;8.850;2023-07-20T07:44:55;21.00;82.70
3942;DHT22;1985;48.592;8.850;2023-07-20T07:47:20;21.10;81.90
3942;DHT22;1985;48.592;8.850;2023-07-20T07:49:46;21.10;83.50
3942;DHT22;1985;48.592;8.850;2023-07-20T07:52:11;21.20;82.50
3942;DHT22;1985;48.592;8.850;2023-07-20T07:54:37;21.20;82.30
3942;DHT22;1985;48.592;8.850;2023-07-20T07:57:03;21.20;82.00
3942;DHT22;1985;48.592;8.850;2023-07-20T07:59:28;21.40;81.50
3942;DHT22;1985;48.592;8.850;2023-07-20T08:01:55;21.70;78.60
3942;DHT22;1985;48.592;8.850;2023-07-20T08:04:20;21.80;77.80
3942;DHT22;1985;48.592;8.850;2023-07-20T08:06:46;21.80;77.50
3942;DHT22;1985;48.592;8.850;2023-07-20T08:09:12;21.60;77.00
3942;DHT22;1985;48.592;8.850;2023-07-20T08:11:39;21.70;77.60
3942;DHT22;1985;48.592;8.850;2023-07-20T08:14:05;21.70;77.30
3942;DHT22;1985;48.592;8.850;2023-07-20T08:16:30;21.50;76.20
3942;DHT22;1985;48.592;8.850;2023-07-20T08:18:56;21.40;76.80
3942;DHT22;1985;48.592;8.850;2023-07-20T08:21:22;21.20;76.40
3942;DHT22;1985;48.592;8.850;2023-07-20T08:23:47;21.30;76.30
3942;DHT22;1985;48.592;8.850;2023-07-20T08:26:13;21.30;77.30
3942;DHT22;1985;48.592;8.850;2023-07-20T08:28:38;21.40;77.10
3942;DHT22;1985;48.592;8.850;2023-07-20T08:31:06;21.50;77.70
3942;DHT22;1985;48.592;8.850;2023-07-20T08:33:32;21.70;76.60
3942;DHT22;1985;48.592;8.850;2023-07-20T08:36:00;21.90;75.90
3942;DHT22;1985;48.592;8.850;2023-07-20T08:38:26;21.90;73.50
3942;DHT22;1985;48.592;8.850;2023-07-20T08:40:52;22.00;73.30
3942;DHT22;1985;48.592;8.850;2023-07-20T08:43:20;22.20;71.90
3942;DHT22;1985;48.592;8.850;2023-07-20T08:45:47;22.30;73.10
3942;DHT22;1985;48.592;8.850;2023-07-20T08:48:14;22.30;72.60
3942;DHT22;1985;48.592;8.850;2023-07-20T08:50:41;22.00;71.50
3942;DHT22;1985;48.592;8.850;2023-07-20T08:53:08;22.10;71.30
3942;DHT22;1985;48.592;8.850;2023-07-20T08:55:35;22.30;67.70
3942;DHT22;1985;48.592;8.850;2023-07-20T08:58:02;22.60;65.50
3942;DHT22;1985;48.592;8.850;2023-07-20T09:00:29;22.50;66.30
3942;DHT22;1985;48.592;8.850;2023-07-20T09:02:56;22.50;65.10
3942;DHT22;1985;48.592;8.850;2023-07-20T09:05:24;22.40;64.40
3942;DHT22;1985;48.592;8.850;2023-07-20T09:07:52;22.40;63.60
3942;DHT22;1985;48.592;8.850;2023-07-20T09:10:23;22.70;63.00
3942;DHT22;1985;48.592;8.850;2023-07-20T09:12:50;22.90;60.10
3942;DHT22;1985;48.592;8.850;2023-07-20T09:15:16;23.00;58.80
3942;DHT22;1985;48.592;8.850;2023-07-20T09:17:47;23.00;60.30
3942;DHT22;1985;48.592;8.850;2023-07-20T09:20:15;23.20;59.80
3942;DHT22;1985;48.592;8.850;2023-07-20T09:22:42;23.30;59.40
3942;DHT22;1985;48.592;8.850;2023-07-20T09:25:18;23.30;59.50
3942;DHT22;1985;48.592;8.850;2023-07-20T09:27:48;23.30;61.00
3942;DHT22;1985;48.592;8.850;2023-07-20T09:30:15;23.60;59.60
3942;DHT22;1985;48.592;8.850;2023-07-20T09:32:43;23.50;60.30
3942;DHT22;1985;48.592;8.850;2023-07-20T09:37:39;22.90;59.20
3942;DHT22;1985;48.592;8.850;2023-07-20T09:40:07;22.70;60.00
3942;DHT22;1985;48.592;8.850;2023-07-20T09:42:35;23.10;59.80
3942;DHT22;1985;48.592;8.850;2023-07-20T09:45:02;23.50;58.20
3942;DHT22;1985;48.592;8.850;2023-07-20T09:47:28;23.60;58.30
3942;DHT22;1985;48.592;8.850;2023-07-20T09:50:00;23.80;59.20
3942;DHT22;1985;48.592;8.850;2023-07-20T09:52:26;24.10;58.50
3942;DHT22;1985;48.592;8.850;2023-07-20T09:54:52;24.20;57.00
3942;DHT22;1985;48.592;8.850;2023-07-20T09:57:21;24.00;56.70
3942;DHT22;1985;48.592;8.850;2023-07-20T09:59:47;23.90;58.10
3942;DHT22;1985;48.592;8.850;2023-07-20T10:02:25;24.10;58.10
3942;DHT22;1985;48.592;8.850;2023-07-20T10:04:54;24.30;55.30
3942;DHT22;1985;48.592;8.850;2023-07-20T10:07:21;24.50;54.30
3942;DHT22;1985;48.592;8.850;2023-07-20T10:09:48;24.50;54.10
3942;DHT22;1985;48.592;8.850;2023-07-20T10:12:17;24.60;54.40
3942;DHT22;1985;48.592;8.850;2023-07-20T10:14:54;24.20;55.80
3942;DHT22;1985;48.592;8.850;2023-07-20T10:17:25;24.00;54.00
3942;DHT22;1985;48.592;8.850;2023-07-20T10:19:54;24.10;53.10
3942;DHT22;1985;48.592;8.850;2023-07-20T10:22:31;24.30;54.20
3942;DHT22;1985;48.592;8.850;2023-07-20T10:25:00;24.50;54.80
3942;DHT22;1985;48.592;8.850;2023-07-20T10:27:26;24.90;52.50
3942;DHT22;1985;48.592;8.850;2023-07-20T10:29:53;24.90;52.40
3942;DHT22;1985;48.592;8.850;2023-07-20T10:32:20;25.00;51.80
3942;DHT22;1985;48.592;8.850;2023-07-20T10:34:51;25.00;52.80
3942;DHT22;1985;48.592;8.850;2023-07-20T10:37:53;25.20;53.30
3942;DHT22;1985;48.592;8.850;2023-07-20T10:40:34;25.70;51.50
3942;DHT22;1985;48.592;8.850;2023-07-20T10:43:07;25.50;52.00
3942;DHT22;1985;48.592;8.850;2023-07-20T10:48:06;25.40;53.80
3942;DHT22;1985;48.592;8.850;2023-07-20T10:50:37;26.00;53.30
3942;DHT22;1985;48.592;8.850;2023-07-20T10:53:17;26.30;52.80
3942;DHT22;1985;48.592;8.850;2023-07-20T10:55:43;26.30;52.00
3942;DHT22;1985;48.592;8.850;2023-07-20T10:58:11;26.50;51.60
3942;DHT22;1985;48.592;8.850;2023-07-20T11:00:54;26.70;47.60
3942;DHT22;1985;48.592;8.850;2023-07-20T11:03:28;26.80;45.90
3942;DHT22;1985;48.592;8.850;2023-07-20T11:05:54;26.60;50.10
3942;DHT22;1985;48.592;8.850;2023-07-20T11:08:39;27.10;50.90
3942;DHT22;1985;48.592;8.850;2023-07-20T11:11:23;27.20;47.80
3942;DHT22;1985;48.592;8.850;2023-07-20T11:14:00;27.20;49.50
3942;DHT22;1985;48.592;8.850;2023-07-20T11:16:41;27.20;49.40
3942;DHT22;1985;48.592;8.850;2023-07-20T11:19:17;26.60;50.00
3942;DHT22;1985;48.592;8.850;2023-07-20T11:21:44;26.50;50.10
3942;DHT22;1985;48.592;8.850;2023-07-20T11:24:10;26.60;50.10
3942;DHT22;1985;48.592;8.850;2023-07-20T11:26:56;26.90;50.00
3942;DHT22;1985;48.592;8.850;2023-07-20T11:29:23;27.40;48.90
3942;DHT22;1985;48.592;8.850;2023-07-20T11:31:50;27.90;50.00
3942;DHT22;1985;48.592;8.850;2023-07-20T11:34:20;28.40;49.20
3942;DHT22;1985;48.592;8.850;2023-07-20T11:36:48;28.60;47.50
3942;DHT22;1985;48.592;8.850;2023-07-20T11:39:18;28.80;46.10
3942;DHT22;1985;48.592;8.850;2023-07-20T11:41:48;28.70;46.50
3942;DHT22;1985;48.592;8.850;2023-07-20T11:44:16;28.20;46.10
3942;DHT22;1985;48.592;8.850;2023-07-20T11:46:43;27.80;49.10
3942;DHT22;1985;48.592;8.850;2023-07-20T11:49:09;28.10;49.30
3942;DHT22;1985;48.592;8.850;2023-07-20T11:51:36;28.30;47.50
3942;DHT22;1985;48.592;8.850;2023-07-20T11:54:03;28.70;47.90
3942;DHT22;1985;48.592;8.850;2023-07-20T11:56:29;29.10;47.50
3942;DHT22;1985;48.592;8.850;2023-07-20T11:58:57;29.30;46.30
3942;DHT22;1985;48.592;8.850;2023-07-20T12:01:25;29.40;46.70
3942;DHT22;1985;48.592;8.850;2023-07-20T12:03:55;29.30;44.10
3942;DHT22;1985;48.592;8.850;2023-07-20T12:06:27;29.40;46.60
3942;DHT22;1985;48.592;8.850;2023-07-20T12:08:57;29.70;43.10
3942;DHT22;1985;48.592;8.850;2023-07-20T12:13:58;28.90;44.10
3942;DHT22;1985;48.592;8.850;2023-07-20T12:16:27;28.50;44.60
3942;DHT22;1985;48.592;8.850;2023-07-20T12:19:19;28.20;44.20
3942;DHT22;1985;48.592;8.850;2023-07-20T12:21:45;27.90;43.70
3942;DHT22;1985;48.592;8.850;2023-07-20T12:24:11;27.60;45.50
3942;DHT22;1985;48.592;8.850;2023-07-20T12:26:37;27.80;44.30
3942;DHT22;1985;48.592;8.850;2023-07-20T12:29:03;28.20;47.50
3942;DHT22;1985;48.592;8.850;2023-07-20T12:31:29;28.50;47.90
3942;DHT22;1985;48.592;8.850;2023-07-20T12:33:57;28.80;46.70
3942;DHT22;1985;48.592;8.850;2023-07-20T12:36:24;29.00;43.90
3942;DHT22;1985;48.592;8.850;2023-07-20T12:38:50;29.20;46.00
3942;DHT22;1985;48.592;8.850;2023-07-20T12:41:15;29.30;43.40
3942;DHT22;1985;48.592;8.850;2023-07-20T12:43:42;29.10;43.80
3942;DHT22;1985;48.592;8.850;2023-07-20T12:46:08;28.90;43.80
3942;DHT22;1985;48.592;8.850;2023-07-20T12:48:35;28.70;45.60
3942;DHT22;1985;48.592;8.850;2023-07-20T12:51:02;28.70;44.00
3942;DHT22;1985;48.592;8.850;2023-07-20T12:53:29;28.70;45.30
3942;DHT22;1985;48.592;8.850;2023-07-20T12:55:54;28.70;45.20
3942;DHT22;1985;48.592;8.850;2023-07-20T12:58:20;28.80;44.90
3942;DHT22;1985;48.592;8.850;2023-07-20T13:00:46;28.80;45.50
3942;DHT22;1985;48.592;8.850;2023-07-20T13:03:11;28.80;43.10
3942;DHT22;1985;48.592;8.850;2023-07-20T13:05:37;28.60;44.50
3942;DHT22;1985;48.592;8.850;2023-07-20T13:08:03;28.30;44.80
3942;DHT22;1985;48.592;8.850;2023-07-20T13:10:29;28.30;46.20
3942;DHT22;1985;48.592;8.850;2023-07-20T13:12:55;28.20;45.80
3942;DHT22;1985;48.592;8.850;2023-07-20T13:15:20;28.10;45.90
3942;DHT22;1985;48.592;8.850;2023-07-20T13:17:46;28.20;46.10
3942;DHT22;1985;48.592;8.850;2023-07-20T13:20:12;28.40;46.30
3942;DHT22;1985;48.592;8.850;2023-07-20T13:22:39;28.30;45.90
3942;DHT22;1985;48.592;8.850;2023-07-20T13:25:06;28.20;46.00
3942;DHT22;1985;48.592;8.850;2023-07-20T13:27:32;28.30;45.20
3942;DHT22;1985;48.592;8.850;2023-07-20T13:29:59;28.40;44.60
3942;DHT22;1985;48.592;8.850;2023-07-20T13:32:26;28.50;46.90
3942;DHT22;1985;48.592;8.850;2023-07-20T13:34:52;28.70;48.30
3942;DHT22;1985;48.592;8.850;2023-07-20T13:37:18;28.80;46.50
3942;DHT22;1985;48.592;8.850;2023-07-20T13:39:44;28.80;45.90
3942;DHT22;1985;48.592;8.850;2023-07-20T13:42:10;28.80;43.90
3942;DHT22;1985;48.592;8.850;2023-07-20T13:44:37;28.80;46.30
3942;DHT22;1985;48.592;8.850;2023-07-20T13:47:04;28.80;46.30
3942;DHT22;1985;48.592;8.850;2023-07-20T13:49:32;28.70;43.40
3942;DHT22;1985;48.592;8.850;2023-07-20T13:51:58;28.20;44.50
3942;DHT22;1985;48.592;8.850;2023-07-20T13:54:25;27.70;45.00
3942;DHT22;1985;48.592;8.850;2023-07-20T13:56:50;27.50;44.60
3942;DHT22;1985;48.592;8.850;2023-07-20T13:59:19;27.30;45.60
3942;DHT22;1985;48.592;8.850;2023-07-20T14:01:45;27.40;47.10
3942;DHT22;1985;48.592;8.850;2023-07-20T14:04:12;27.70;48.20
3942;DHT22;1985;48.592;8.850;2023-07-20T14:06:38;27.90;45.80
3942;DHT22;1985;48.592;8.850;2023-07-20T14:09:03;28.00;47.10
3942;DHT22;1985;48.592;8.850;2023-07-20T14:11:29;28.10;45.80
3942;DHT22;1985;48.592;8.850;2023-07-20T14:13:55;28.10;46.60
3942;DHT22;1985;48.592;8.850;2023-07-20T14:16:21;28.00;46.10
3942;DHT22;1985;48.592;8.850;2023-07-20T14:18:47;27.90;47.40
3942;DHT22;1985;48.592;8.850;2023-07-20T14:21:14;27.90;47.30
3942;DHT22;1985;48.592;8.850;2023-07-20T14:23:40;28.00;46.30
3942;DHT22;1985;48.592;8.850;2023-07-20T14:26:05;28.20;47.40
3942;DHT22;1985;48.592;8.850;2023-07-20T14:28:32;28.20;46.80
3942;DHT22;1985;48.592;8.850;2023-07-20T14:30:58;28.20;46.50
3942;DHT22;1985;48.592;8.850;2023-07-20T14:33:24;28.10;44.40
3942;DHT22;1985;48.592;8.850;2023-07-20T14:35:50;27.90;44.90
3942;DHT22;1985;48.592;8.850;2023-07-20T14:38:15;27.60;45.00
3942;DHT22;1985;48.592;8.850;2023-07-20T14:40:41;27.50;46.80
3942;DHT22;1985;48.592;8.850;2023-07-20T14:43:07;27.40;45.70
3942;DHT22;1985;48.592;8.850;2023-07-20T14:45:32;27.10;46.20
3942;DHT22;1985;48.592;8.850;2023-07-20T14:47:58;27.00;45.70
3942;DHT22;1985;48.592;8.850;2023-07-20T14:50:24;26.90;47.50
3942;DHT22;1985;48.592;8.850;2023-07-20T14:52:50;26.80;47.90
3942;DHT22;1985;48.592;8.850;2023-07-20T14:55:16;26.90;48.30
3942;DHT22;1985;48.592;8.850;2023-07-20T14:57:42;27.00;48.10
3942;DHT22;1985;48.592;8.850;2023-07-20T15:00:08;27.10;47.50
3942;DHT22;1985;48.592;8.850;2023-07-20T15:02:38;27.00;45.50
3942;DHT22;1985;48.592;8.850;2023-07-20T15:05:08;26.90;45.90
3942;DHT22;1985;48.592;8.850;2023-07-20T15:07:34;26.80;48.40
3942;DHT22;1985;48.592;8.850;2023-07-20T15:10:00;26.80;49.10
3942;DHT22;1985;48.592;8.850;2023-07-20T15:12:26;26.60;49.80
3942;DHT22;1985;48.592;8.850;2023-07-20T15:15:14;26.60;49.80
3942;DHT22;1985;48.592;8.850;2023-07-20T15:17:42;26.70;50.50
3942;DHT22;1985;48.592;8.850;2023-07-20T15:20:11;26.80;49.70
3942;DHT22;1985;48.592;8.850;2023-07-20T15:22:37;26.80;48.70
3942;DHT22;1985;48.592;8.850;2023-07-20T15:25:05;26.90;49.90
3942;DHT22;1985;48.592;8.850;2023-07-20T15:27:32;26.90;49.60
3942;DHT22;1985;48.592;8.850;2023-07-20T15:29:58;26.90;48.40
3942;DHT22;1985;48.592;8.850;2023-07-20T15:32:23;26.80;49.10
3942;DHT22;1985;48.592;8.850;2023-07-20T15:34:49;26.80;49.30
3942;DHT22;1985;48.592;8.850;2023-07-20T15:37:15;26.80;49.30
3942;DHT22;1985;48.592;8.850;2023-07-20T15:39:40;26.70;48.80
3942;DHT22;1985;48.592;8.850;2023-07-20T15:42:07;26.40;48.70
3942;DHT22;1985;48.592;8.850;2023-07-20T15:44:33;26.40;50.00
3942;DHT22;1985;48.592;8.850;2023-07-20T15:46:59;26.40;48.70
3942;DHT22;1985;48.592;8.850;2023-07-20T15:49:24;26.30;49.50
3942;DHT22;1985;48.592;8.850;2023-07-20T15:51:51;26.20;49.70
3942;DHT22;1985;48.592;8.850;2023-07-20T15:54:16;26.20;48.90
3942;DHT22;1985;48.592;8.850;2023-07-20T15:56:43;26.00;49.60
3942;DHT22;1985;48.592;8.850;2023-07-20T15:59:10;26.00;50.80
3942;DHT22;1985;48.592;8.850;2023-07-20T16:01:37;26.00;50.20
3942;DHT22;1985;48.592;8.850;2023-07-20T16:04:05;26.00;50.60
3942;DHT22;1985;48.592;8.850;2023-07-20T16:06:31;26.00;51.00
3942;DHT22;1985;48.592;8.850;2023-07-20T16:08:56;26.10;51.00
3942;DHT22;1985;48.592;8.850;2023-07-20T16:11:22;26.10;50.70
3942;DHT22;1985;48.592;8.850;2023-07-20T16:13:49;26.20;50.60